^^
Meteo Knjazevac Station Historical Data
Daily Summary for July 10, 2021 Units:  Both    English   Metric
Daily Weekly Monthly Yearly Custom
  High: Low: Average:
Temperature: 82.2 °F /  27.9 °C 49.3 °F /  9.6 °C 64.1 °F /  17.8 °C
Dew Point: 57.2 °F /  14 °C 44.6 °F /  7 °C 50.7 °F /  10.4 °C
Humidity: 90% 37% 65%
Wind Speed: 6mph /  9.7km/h - 1.5mph /  2.4km/h
Wind Gust: 14mph /  22.5km/h - -
Wind- - SSW
Pressure: 30.17 in /  1021.6 hPa 30.07 in /  1018.2 hPa -
Precipitation: 0.00 in /  0 mm    
Historical Graphs
 
 
Tabular Data for July 10, 2021
Time Temperature Dew Point Pressure Wind Wind Speed Wind Gust Humidity Rainfall Rate (Hourly) solar Conditions
00:00 57 °F /  13.9 °C 50.2 °F /  10.1 °C 30.17in /  1021.6hPa Calm   3mph /  4.8km/h 78% 0.00in /  0mm 0 W/m2
00:10 57 °F /  13.9 °C 50.2 °F /  10.1 °C 30.17in /  1021.6hPa WSW 1mph /  1.6km/h 2mph /  3.2km/h 78% 0.00in /  0mm 0 W/m2
00:20 56.5 °F /  13.6 °C 49.7 °F /  9.8 °C 30.16in /  1021.2hPa Calm   2mph /  3.2km/h 78% 0.00in /  0mm 0 W/m2
00:30 56.3 °F /  13.5 °C 49.5 °F /  9.7 °C 30.16in /  1021.2hPa WSW 2mph /  3.2km/h 2mph /  3.2km/h 78% 0.00in /  0mm 0 W/m2
00:40 56.1 °F /  13.4 °C 49.7 °F /  9.8 °C 30.16in /  1021.2hPa West 1mph /  1.6km/h 2mph /  3.2km/h 79% 0.00in /  0mm 0 W/m2
00:50 56.1 °F /  13.4 °C 49.7 °F /  9.8 °C 30.16in /  1021.2hPa WNW 1mph /  1.6km/h 4mph /  6.4km/h 79% 0.00in /  0mm 0 W/m2
01:00 55.9 °F /  13.3 °C 49.5 °F /  9.7 °C 30.16in /  1021.2hPa West 1mph /  1.6km/h 3mph /  4.8km/h 79% 0.00in /  0mm 0 W/m2
01:10 55.9 °F /  13.3 °C 49.5 °F /  9.7 °C 30.15in /  1020.9hPa NNW 2mph /  3.2km/h 3mph /  4.8km/h 79% 0.00in /  0mm 0 W/m2
01:20 55.9 °F /  13.3 °C 49.5 °F /  9.7 °C 30.15in /  1020.9hPa Calm   2mph /  3.2km/h 79% 0.00in /  0mm 0 W/m2
01:30 55.8 °F /  13.2 °C 49.3 °F /  9.6 °C 30.15in /  1020.9hPa NNW 1mph /  1.6km/h 2mph /  3.2km/h 79% 0.00in /  0mm 0 W/m2
01:40 55.4 °F /  13 °C 49.3 °F /  9.6 °C 30.15in /  1020.9hPa Calm   2mph /  3.2km/h 80% 0.00in /  0mm 0 W/m2
01:50 55.2 °F /  12.9 °C 49.2 °F /  9.6 °C 30.15in /  1020.9hPa Calm     80% 0.00in /  0mm 0 W/m2
02:00 55 °F /  12.8 °C 49 °F /  9.4 °C 30.15in /  1020.9hPa Calm   1mph /  1.6km/h 80% 0.00in /  0mm 0 W/m2
02:10 54.9 °F /  12.7 °C 48.8 °F /  9.3 °C 30.15in /  1020.9hPa Calm     80% 0.00in /  0mm 0 W/m2
02:20 54.7 °F /  12.6 °C 49 °F /  9.4 °C 30.15in /  1020.9hPa Calm   2mph /  3.2km/h 81% 0.00in /  0mm 0 W/m2
02:30 54.7 °F /  12.6 °C 49 °F /  9.4 °C 30.15in /  1020.9hPa Calm   1mph /  1.6km/h 81% 0.00in /  0mm 0 W/m2
02:40 54.2 °F /  12.3 °C 48.5 °F /  9.2 °C 30.15in /  1020.9hPa WNW 1mph /  1.6km/h 2mph /  3.2km/h 81% 0.00in /  0mm 0 W/m2
02:50 54 °F /  12.2 °C 48.9 °F /  9.4 °C 30.15in /  1020.9hPa NW 1mph /  1.6km/h 2mph /  3.2km/h 83% 0.00in /  0mm 0 W/m2
03:20 53.2 °F /  11.8 °C 48.2 °F /  9 °C 30.15in /  1020.9hPa Calm   1mph /  1.6km/h 83% 0.00in /  0mm 0 W/m2
03:30 52.9 °F /  11.6 °C 48.2 °F /  9 °C 30.15in /  1020.9hPa Calm   1mph /  1.6km/h 84% 0.00in /  0mm 0 W/m2
03:40 52.5 °F /  11.4 °C 47.8 °F /  8.8 °C 30.15in /  1020.9hPa Calm   1mph /  1.6km/h 84% 0.00in /  0mm 0 W/m2
03:50 52.3 °F /  11.3 °C 47.6 °F /  8.7 °C 30.15in /  1020.9hPa Calm   2mph /  3.2km/h 84% 0.00in /  0mm 0 W/m2
04:00 52 °F /  11.1 °C 47.4 °F /  8.6 °C 30.15in /  1020.9hPa Calm   1mph /  1.6km/h 84% 0.00in /  0mm 0 W/m2
04:10 51.8 °F /  11 °C 47.4 °F /  8.6 °C 30.15in /  1020.9hPa Calm   2mph /  3.2km/h 85% 0.00in /  0mm 0 W/m2
04:20 51.4 °F /  10.8 °C 47.1 °F /  8.4 °C 30.15in /  1020.9hPa Calm   2mph /  3.2km/h 85% 0.00in /  0mm 0 W/m2
04:30 51.1 °F /  10.6 °C 46.8 °F /  8.2 °C 30.15in /  1020.9hPa Calm     85% 0.00in /  0mm 0 W/m2
04:40 50.8 °F /  10.4 °C 46.4 °F /  8 °C 30.15in /  1020.9hPa Calm   1mph /  1.6km/h 85% 0.00in /  0mm 0 W/m2
04:50 50.5 °F /  10.3 °C 46.5 °F /  8.1 °C 30.15in /  1020.9hPa Calm   2mph /  3.2km/h 86% 0.00in /  0mm 0 W/m2
05:00 50.4 °F /  10.2 °C 46.3 °F /  7.9 °C 30.16in /  1021.2hPa Calm   1mph /  1.6km/h 86% 0.00in /  0mm 0 W/m2
05:10 50.2 °F /  10.1 °C 46.2 °F /  7.9 °C 30.16in /  1021.2hPa NW 1mph /  1.6km/h 2mph /  3.2km/h 86% 0.00in /  0mm 0 W/m2
05:20 49.8 °F /  9.9 °C 45.8 °F /  7.7 °C 30.16in /  1021.2hPa Calm   2mph /  3.2km/h 86% 0.00in /  0mm 0 W/m2
05:30 49.6 °F /  9.8 °C 46.2 °F /  7.9 °C 30.16in /  1021.2hPa Calm   1mph /  1.6km/h 88% 0.00in /  0mm 0 W/m2
05:40 49.6 °F /  9.8 °C 46.2 °F /  7.9 °C 30.16in /  1021.2hPa West 1mph /  1.6km/h 1mph /  1.6km/h 88% 0.00in /  0mm 0 W/m2
05:50 49.5 °F /  9.7 °C 46.1 °F /  7.8 °C 30.16in /  1021.2hPa Calm     88% 0.00in /  0mm 0 W/m2
06:00 49.5 °F /  9.7 °C 46.1 °F /  7.8 °C 30.16in /  1021.2hPa Calm   2mph /  3.2km/h 88% 0.00in /  0mm 0 W/m2
06:10 49.3 °F /  9.6 °C 46.2 °F /  7.9 °C 30.16in /  1021.2hPa Calm   1mph /  1.6km/h 89% 0.00in /  0mm 4 W/m2
06:20 49.3 °F /  9.6 °C 46.2 °F /  7.9 °C 30.17in /  1021.6hPa Calm   1mph /  1.6km/h 89% 0.00in /  0mm 10 W/m2
06:30 49.3 °F /  9.6 °C 46.2 °F /  7.9 °C 30.17in /  1021.6hPa WNW 1mph /  1.6km/h 2mph /  3.2km/h 89% 0.00in /  0mm 20 W/m2
06:40 49.5 °F /  9.7 °C 46.4 °F /  8 °C 30.17in /  1021.6hPa NW 1mph /  1.6km/h 2mph /  3.2km/h 89% 0.00in /  0mm 34 W/m2
06:50 49.6 °F /  9.8 °C 46.5 °F /  8.1 °C 30.17in /  1021.6hPa Calm   2mph /  3.2km/h 89% 0.00in /  0mm 52 W/m2
07:00 49.8 °F /  9.9 °C 46.7 °F /  8.2 °C 30.17in /  1021.6hPa West 1mph /  1.6km/h 1mph /  1.6km/h 89% 0.00in /  0mm 86 W/m2
07:10 50.2 °F /  10.1 °C 47.4 °F /  8.6 °C 30.17in /  1021.6hPa NW 1mph /  1.6km/h 2mph /  3.2km/h 90% 0.00in /  0mm 117 W/m2
07:20 50.7 °F /  10.4 °C 47.9 °F /  8.8 °C 30.17in /  1021.6hPa Calm   3mph /  4.8km/h 90% 0.00in /  0mm 138 W/m2
07:30 51.4 °F /  10.8 °C 48.6 °F /  9.2 °C 30.17in /  1021.6hPa NW 1mph /  1.6km/h 2mph /  3.2km/h 90% 0.00in /  0mm 156 W/m2
07:40 52 °F /  11.1 °C 49.1 °F /  9.5 °C 30.17in /  1021.6hPa Calm   2mph /  3.2km/h 90% 0.00in /  0mm 114 W/m2
07:50 52.3 °F /  11.3 °C 49.2 °F /  9.6 °C 30.17in /  1021.6hPa Calm   1mph /  1.6km/h 89% 0.00in /  0mm 110 W/m2
08:00 52.8 °F /  11.6 °C 49.7 °F /  9.8 °C 30.17in /  1021.6hPa Calm   1mph /  1.6km/h 89% 0.00in /  0mm 126 W/m2
08:10 53.4 °F /  11.9 °C 50.2 °F /  10.1 °C 30.17in /  1021.6hPa Calm   1mph /  1.6km/h 89% 0.00in /  0mm 288 W/m2
08:20 54 °F /  12.2 °C 50.5 °F /  10.3 °C 30.17in /  1021.6hPa Calm   2mph /  3.2km/h 88% 0.00in /  0mm 175 W/m2
08:30 54.9 °F /  12.7 °C 51.1 °F /  10.6 °C 30.17in /  1021.6hPa Calm   2mph /  3.2km/h 87% 0.00in /  0mm 231 W/m2
08:40 56.1 °F /  13.4 °C 51.9 °F /  11.1 °C 30.17in /  1021.6hPa Calm   2mph /  3.2km/h 86% 0.00in /  0mm 318 W/m2
08:50 57.6 °F /  14.2 °C 52.8 °F /  11.6 °C 30.17in /  1021.6hPa East 1mph /  1.6km/h 3mph /  4.8km/h 84% 0.00in /  0mm 352 W/m2
09:00 58.6 °F /  14.8 °C 52.8 °F /  11.6 °C 30.17in /  1021.6hPa Calm   5mph /  8km/h 81% 0.00in /  0mm 264 W/m2
09:10 59.5 °F /  15.3 °C 53.4 °F /  11.9 °C 30.17in /  1021.6hPa NNE 1mph /  1.6km/h 7mph /  11.3km/h 80% 0.00in /  0mm 439 W/m2
09:20 60.8 °F /  16 °C 53.9 °F /  12.2 °C 30.17in /  1021.6hPa NE 1mph /  1.6km/h 4mph /  6.4km/h 78% 0.00in /  0mm 529 W/m2
09:30 62.2 °F /  16.8 °C 53.8 °F /  12.1 °C 30.17in /  1021.6hPa SE 1mph /  1.6km/h 6mph /  9.7km/h 74% 0.00in /  0mm 554 W/m2
09:40 63.5 °F /  17.5 °C 54.3 °F /  12.4 °C 30.17in /  1021.6hPa SE 1mph /  1.6km/h 5mph /  8km/h 72% 0.00in /  0mm 579 W/m2
09:50 64.6 °F /  18.1 °C 54.6 °F /  12.6 °C 30.17in /  1021.6hPa ENE 1mph /  1.6km/h 7mph /  11.3km/h 70% 0.00in /  0mm 507 W/m2
10:00 64.9 °F /  18.3 °C 54.5 °F /  12.5 °C 30.17in /  1021.6hPa ESE 3mph /  4.8km/h 6mph /  9.7km/h 69% 0.00in /  0mm 625 W/m2
10:10 66 °F /  18.9 °C 54.7 °F /  12.6 °C 30.17in /  1021.6hPa ENE 2mph /  3.2km/h 7mph /  11.3km/h 67% 0.00in /  0mm 646 W/m2
10:20 66.6 °F /  19.2 °C 55.3 °F /  12.9 °C 30.16in /  1021.2hPa East 1mph /  1.6km/h 5mph /  8km/h 67% 0.00in /  0mm 666 W/m2
10:30 67.5 °F /  19.7 °C 55.3 °F /  12.9 °C 30.16in /  1021.2hPa ENE 2mph /  3.2km/h 6mph /  9.7km/h 65% 0.00in /  0mm 543 W/m2
10:40 68.3 °F /  20.2 °C 56.1 °F /  13.4 °C 30.16in /  1021.2hPa NE 1mph /  1.6km/h 7mph /  11.3km/h 65% 0.00in /  0mm 341 W/m2
10:50 69.6 °F /  20.9 °C 56.9 °F /  13.8 °C 30.15in /  1020.9hPa East 1mph /  1.6km/h 5mph /  8km/h 64% 0.00in /  0mm 186 W/m2
11:00 70.7 °F /  21.5 °C 57 °F /  13.9 °C 30.15in /  1020.9hPa North 1mph /  1.6km/h 6mph /  9.7km/h 62% 0.00in /  0mm 543 W/m2
11:10 72 °F /  22.2 °C 56.8 °F /  13.8 °C 30.15in /  1020.9hPa WSW 1mph /  1.6km/h 5mph /  8km/h 59% 0.00in /  0mm 244 W/m2
11:20 72.8 °F /  22.7 °C 57.2 °F /  14 °C 30.15in /  1020.9hPa ESE 1mph /  1.6km/h 5mph /  8km/h 58% 0.00in /  0mm 709 W/m2
11:30 73.4 °F /  23 °C 57.2 °F /  14 °C 30.14in /  1020.5hPa North 1mph /  1.6km/h 7mph /  11.3km/h 57% 0.00in /  0mm 378 W/m2
11:40 73.4 °F /  23 °C 56.2 °F /  13.4 °C 30.14in /  1020.5hPa East 2mph /  3.2km/h 5mph /  8km/h 55% 0.00in /  0mm 660 W/m2
11:50 73.9 °F /  23.3 °C 56.2 °F /  13.4 °C 30.14in /  1020.5hPa NE 3mph /  4.8km/h 6mph /  9.7km/h 54% 0.00in /  0mm 609 W/m2
12:00 74.6 °F /  23.7 °C 56.9 °F /  13.8 °C 30.13in /  1020.2hPa NE 3mph /  4.8km/h 9mph /  14.5km/h 54% 0.00in /  0mm 556 W/m2
12:10 75.2 °F /  24 °C 56.9 °F /  13.8 °C 30.13in /  1020.2hPa NNE 1mph /  1.6km/h 8mph /  12.9km/h 53% 0.00in /  0mm 472 W/m2
12:20 75.6 °F /  24.2 °C 56.7 °F /  13.7 °C 30.12in /  1019.9hPa NNE 5mph /  8km/h 8mph /  12.9km/h 52% 0.00in /  0mm 791 W/m2
12:30 76.8 °F /  24.9 °C 56.7 °F /  13.7 °C 30.12in /  1019.9hPa North 6mph /  9.7km/h 8mph /  12.9km/h 50% 0.00in /  0mm 791 W/m2
12:40 77.9 °F /  25.5 °C 56.6 °F /  13.7 °C 30.12in /  1019.9hPa NNE 2mph /  3.2km/h 8mph /  12.9km/h 48% 0.00in /  0mm 790 W/m2
12:50 78.6 °F /  25.9 °C 56.7 °F /  13.7 °C 30.12in /  1019.9hPa ENE 1mph /  1.6km/h 10mph /  16.1km/h 47% 0.00in /  0mm 749 W/m2
13:00 79.5 °F /  26.4 °C 56.3 °F /  13.5 °C 30.11in /  1019.5hPa NNE 3mph /  4.8km/h 8mph /  12.9km/h 45% 0.00in /  0mm 781 W/m2
13:10 80.4 °F /  26.9 °C 56.5 °F /  13.6 °C 30.11in /  1019.5hPa NNE 2mph /  3.2km/h 9mph /  14.5km/h 44% 0.00in /  0mm 775 W/m2
13:20 80.7 °F /  27.1 °C 56.8 °F /  13.8 °C 30.10in /  1019.2hPa WNW 2mph /  3.2km/h 7mph /  11.3km/h 44% 0.00in /  0mm 767 W/m2
13:30 81.1 °F /  27.3 °C 55.9 °F /  13.3 °C 30.10in /  1019.2hPa NW 3mph /  4.8km/h 13mph /  20.9km/h 42% 0.00in /  0mm 758 W/m2
13:40 81.3 °F /  27.4 °C 54.7 °F /  12.6 °C 30.10in /  1019.2hPa NNW 3mph /  4.8km/h 9mph /  14.5km/h 40% 0.00in /  0mm 747 W/m2
13:50 81.7 °F /  27.6 °C 55 °F /  12.8 °C 30.09in /  1018.8hPa WNW 2mph /  3.2km/h 8mph /  12.9km/h 40% 0.00in /  0mm 734 W/m2
14:00 81.7 °F /  27.6 °C 55 °F /  12.8 °C 30.09in /  1018.8hPa NW 3mph /  4.8km/h 9mph /  14.5km/h 40% 0.00in /  0mm 720 W/m2
14:10 82 °F /  27.8 °C 55.3 °F /  12.9 °C 30.09in /  1018.8hPa North 3mph /  4.8km/h 10mph /  16.1km/h 40% 0.00in /  0mm 704 W/m2
14:20 82.2 °F /  27.9 °C 55.5 °F /  13.1 °C 30.09in /  1018.8hPa NNE 3mph /  4.8km/h 13mph /  20.9km/h 40% 0.00in /  0mm 687 W/m2
14:30 82 °F /  27.8 °C 55.3 °F /  12.9 °C 30.09in /  1018.8hPa North 3mph /  4.8km/h 10mph /  16.1km/h 40% 0.00in /  0mm 669 W/m2
14:40 81.9 °F /  27.7 °C 54.5 °F /  12.5 °C 30.09in /  1018.8hPa NNW 5mph /  8km/h 14mph /  22.5km/h 39% 0.00in /  0mm 637 W/m2
14:50 81.9 °F /  27.7 °C 54.5 °F /  12.5 °C 30.08in /  1018.5hPa North 2mph /  3.2km/h 12mph /  19.3km/h 39% 0.00in /  0mm 628 W/m2
15:10 81.9 °F /  27.7 °C 54.5 °F /  12.5 °C 30.08in /  1018.5hPa North 3mph /  4.8km/h 13mph /  20.9km/h 39% 0.00in /  0mm 582 W/m2
15:20 82 °F /  27.8 °C 54.6 °F /  12.6 °C 30.08in /  1018.5hPa North 3mph /  4.8km/h 11mph /  17.7km/h 39% 0.00in /  0mm 558 W/m2
15:30 82.2 °F /  27.9 °C 54.1 °F /  12.3 °C 30.08in /  1018.5hPa North 6mph /  9.7km/h 10mph /  16.1km/h 38% 0.00in /  0mm 533 W/m2
15:40 82 °F /  27.8 °C 53.9 °F /  12.2 °C 30.08in /  1018.5hPa NNW 5mph /  8km/h 12mph /  19.3km/h 38% 0.00in /  0mm 506 W/m2
15:50 82.2 °F /  27.9 °C 54.1 °F /  12.3 °C 30.07in /  1018.2hPa North 6mph /  9.7km/h 12mph /  19.3km/h 38% 0.00in /  0mm 479 W/m2
16:00 82.2 °F /  27.9 °C 54.1 °F /  12.3 °C 30.08in /  1018.5hPa North 5mph /  8km/h 13mph /  20.9km/h 38% 0.00in /  0mm 451 W/m2
16:10 81.9 °F /  27.7 °C 53 °F /  11.7 °C 30.07in /  1018.2hPa North 5mph /  8km/h 13mph /  20.9km/h 37% 0.00in /  0mm 318 W/m2
16:20 81.3 °F /  27.4 °C 53.3 °F /  11.8 °C 30.08in /  1018.5hPa North 2mph /  3.2km/h 11mph /  17.7km/h 38% 0.00in /  0mm 385 W/m2
16:30 81.1 °F /  27.3 °C 53.1 °F /  11.7 °C 30.08in /  1018.5hPa North 5mph /  8km/h 9mph /  14.5km/h 38% 0.00in /  0mm 361 W/m2
16:40 81 °F /  27.2 °C 53 °F /  11.7 °C 30.08in /  1018.5hPa North 2mph /  3.2km/h 6mph /  9.7km/h 38% 0.00in /  0mm 326 W/m2
16:50 81 °F /  27.2 °C 53 °F /  11.7 °C 30.07in /  1018.2hPa North 2mph /  3.2km/h 6mph /  9.7km/h 38% 0.00in /  0mm 298 W/m2
17:00 80.6 °F /  27 °C 52.6 °F /  11.4 °C 30.07in /  1018.2hPa North 1mph /  1.6km/h 9mph /  14.5km/h 38% 0.00in /  0mm 262 W/m2
17:10 80.4 °F /  26.9 °C 52.5 °F /  11.4 °C 30.08in /  1018.5hPa WNW 2mph /  3.2km/h 7mph /  11.3km/h 38% 0.00in /  0mm 233 W/m2
17:20 79.9 °F /  26.6 °C 52.7 °F /  11.5 °C 30.08in /  1018.5hPa North 2mph /  3.2km/h 6mph /  9.7km/h 39% 0.00in /  0mm 199 W/m2
17:30 79.5 °F /  26.4 °C 52.4 °F /  11.3 °C 30.07in /  1018.2hPa WNW 2mph /  3.2km/h 5mph /  8km/h 39% 0.00in /  0mm 166 W/m2
17:40 79 °F /  26.1 °C 51.9 °F /  11.1 °C 30.08in /  1018.5hPa NW 1mph /  1.6km/h 8mph /  12.9km/h 39% 0.00in /  0mm 136 W/m2
17:50 78.3 °F /  25.7 °C 51.3 °F /  10.7 °C 30.08in /  1018.5hPa NW 1mph /  1.6km/h 6mph /  9.7km/h 39% 0.00in /  0mm 108 W/m2
18:00 77.5 °F /  25.3 °C 51.3 °F /  10.7 °C 30.08in /  1018.5hPa NW 2mph /  3.2km/h 6mph /  9.7km/h 40% 0.00in /  0mm 82 W/m2
18:10 76.8 °F /  24.9 °C 50.7 °F /  10.4 °C 30.08in /  1018.5hPa North 2mph /  3.2km/h 6mph /  9.7km/h 40% 0.00in /  0mm 59 W/m2
18:20 76.1 °F /  24.5 °C 51.3 °F /  10.7 °C 30.08in /  1018.5hPa North 3mph /  4.8km/h 7mph /  11.3km/h 42% 0.00in /  0mm 39 W/m2
18:30 75.2 °F /  24 °C 50.5 °F /  10.3 °C 30.08in /  1018.5hPa North 2mph /  3.2km/h 6mph /  9.7km/h 42% 0.00in /  0mm 24 W/m2
18:40 74.5 °F /  23.6 °C 49.9 °F /  9.9 °C 30.08in /  1018.5hPa North 3mph /  4.8km/h 7mph /  11.3km/h 42% 0.00in /  0mm 11 W/m2
18:50 73.8 °F /  23.2 °C 49.2 °F /  9.6 °C 30.08in /  1018.5hPa NNW 1mph /  1.6km/h 7mph /  11.3km/h 42% 0.00in /  0mm 5 W/m2
19:00 73 °F /  22.8 °C 49.2 °F /  9.6 °C 30.08in /  1018.5hPa NNW 3mph /  4.8km/h 7mph /  11.3km/h 43% 0.00in /  0mm 0 W/m2
20:00 69.4 °F /  20.8 °C 49.1 °F /  9.5 °C 30.11in /  1019.5hPa NNE 2.5mph /  4km/h 7mph /  11.3km/h 48.5% 0.00in /  0mm 0 W/m2
20:10 66.4 °F /  19.1 °C 48.7 °F /  9.3 °C 30.11in /  1019.5hPa SSE 2mph /  3.2km/h 6mph /  9.7km/h 53% 0.00in /  0mm 0 W/m2
20:20 65.1 °F /  18.4 °C 48.6 °F /  9.2 °C 30.12in /  1019.9hPa South 2mph /  3.2km/h 6mph /  9.7km/h 55% 0.00in /  0mm 0 W/m2
20:30 64.4 °F /  18 °C 48.8 °F /  9.3 °C 30.12in /  1019.9hPa SW 2mph /  3.2km/h 4mph /  6.4km/h 57% 0.00in /  0mm 0 W/m2
20:40 63.7 °F /  17.6 °C 48.6 °F /  9.2 °C 30.12in /  1019.9hPa SW 2mph /  3.2km/h 5mph /  8km/h 58% 0.00in /  0mm 0 W/m2
20:50 63 °F /  17.2 °C 47.9 °F /  8.8 °C 30.12in /  1019.9hPa West 3mph /  4.8km/h 5mph /  8km/h 58% 0.00in /  0mm 0 W/m2
21:00 62.2 °F /  16.8 °C 47.7 °F /  8.7 °C 30.12in /  1019.9hPa WSW 2mph /  3.2km/h 3mph /  4.8km/h 59% 0.00in /  0mm 0 W/m2
21:10 61.4 °F /  16.3 °C 47.3 °F /  8.5 °C 30.12in /  1019.9hPa WSW 2mph /  3.2km/h 3mph /  4.8km/h 60% 0.00in /  0mm 0 W/m2
21:20 60.8 °F /  16 °C 46.8 °F /  8.2 °C 30.12in /  1019.9hPa West 2mph /  3.2km/h 4mph /  6.4km/h 60% 0.00in /  0mm 0 W/m2
21:30 60.1 °F /  15.6 °C 47.5 °F /  8.6 °C 30.12in /  1019.9hPa West 3mph /  4.8km/h 5mph /  8km/h 63% 0.00in /  0mm 0 W/m2
21:40 59.5 °F /  15.3 °C 46.9 °F /  8.3 °C 30.12in /  1019.9hPa West 2mph /  3.2km/h 5mph /  8km/h 63% 0.00in /  0mm 0 W/m2
21:50 58.8 °F /  14.9 °C 46.7 °F /  8.2 °C 30.12in /  1019.9hPa SW 1mph /  1.6km/h 3mph /  4.8km/h 64% 0.00in /  0mm 0 W/m2
22:00 58.3 °F /  14.6 °C 46.2 °F /  7.9 °C 30.12in /  1019.9hPa Calm   2mph /  3.2km/h 64% 0.00in /  0mm 0 W/m2
22:10 57.7 °F /  14.3 °C 46 °F /  7.8 °C 30.12in /  1019.9hPa SSW 2mph /  3.2km/h 4mph /  6.4km/h 65% 0.00in /  0mm 0 W/m2
22:20 57.2 °F /  14 °C 46.3 °F /  7.9 °C 30.12in /  1019.9hPa Calm   5mph /  8km/h 67% 0.00in /  0mm 0 W/m2
22:30 56.7 °F /  13.7 °C 46.2 °F /  7.9 °C 30.13in /  1020.2hPa Calm   2mph /  3.2km/h 68% 0.00in /  0mm 0 W/m2
22:40 56.3 °F /  13.5 °C 45.9 °F /  7.7 °C 30.13in /  1020.2hPa SSE 1mph /  1.6km/h 2mph /  3.2km/h 68% 0.00in /  0mm 0 W/m2
22:50 55.8 °F /  13.2 °C 45.4 °F /  7.4 °C 30.13in /  1020.2hPa WSW 1mph /  1.6km/h 3mph /  4.8km/h 68% 0.00in /  0mm 0 W/m2
23:00 55.4 °F /  13 °C 45.4 °F /  7.4 °C 30.13in /  1020.2hPa Calm   5mph /  8km/h 69% 0.00in /  0mm 0 W/m2
23:10 55 °F /  12.8 °C 45.1 °F /  7.3 °C 30.13in /  1020.2hPa NNE 1mph /  1.6km/h 4mph /  6.4km/h 69% 0.00in /  0mm 0 W/m2
23:20 54.9 °F /  12.7 °C 45.3 °F /  7.4 °C 30.13in /  1020.2hPa East 1mph /  1.6km/h 3mph /  4.8km/h 70% 0.00in /  0mm 0 W/m2
23:30 54.7 °F /  12.6 °C 45.1 °F /  7.3 °C 30.13in /  1020.2hPa Calm   3mph /  4.8km/h 70% 0.00in /  0mm 0 W/m2
23:40 54.3 °F /  12.4 °C 44.7 °F /  7.1 °C 30.13in /  1020.2hPa WSW 1mph /  1.6km/h 3mph /  4.8km/h 70% 0.00in /  0mm 0 W/m2
23:50 54.1 °F /  12.3 °C 44.6 °F /  7 °C 30.13in /  1020.2hPa South 1mph /  1.6km/h 3mph /  4.8km/h 70% 0.00in /  0mm 0 W/m2
Knjazevac, Serbia
Compliments of Weather Underground - 2 mb